createdAt,value
2023-02-14T01:45:10.373Z,100
2023-02-14T04:46:10.446Z,100
2023-02-14T05:02:10.506Z,100
2023-02-14T05:17:10.597Z,100
2023-02-14T05:22:10.448Z,100
2023-02-14T05:39:10.450Z,100
2023-02-14T05:42:10.382Z,100
2023-02-14T05:44:10.389Z,100
2023-02-14T05:45:10.383Z,100
2023-02-14T05:46:10.493Z,100
2023-02-14T05:48:10.453Z,100
2023-02-14T05:51:10.506Z,100
2023-02-14T05:53:10.387Z,100
2023-02-14T05:54:11.128Z,100
2023-02-14T05:56:10.394Z,100
2023-02-14T05:57:10.442Z,100
2023-02-14T05:59:10.386Z,100
2023-02-14T06:00:10.413Z,100
2023-02-14T06:02:10.497Z,100
2023-02-14T06:03:10.392Z,100
2023-02-14T06:04:10.432Z,100
2023-02-14T06:05:10.389Z,100
2023-02-14T06:06:10.560Z,100
2023-02-14T06:07:10.388Z,100
2023-02-14T06:08:10.388Z,100
2023-02-14T06:09:10.393Z,100
2023-02-14T06:10:10.400Z,100
2023-02-14T06:11:10.393Z,100
2023-02-14T06:12:10.389Z,100
2023-02-14T06:13:10.401Z,100
2023-02-14T06:14:10.396Z,100
2023-02-14T06:15:10.395Z,100
2023-02-14T06:16:10.396Z,100
2023-02-14T06:17:10.417Z,100
2023-02-14T06:19:10.416Z,100
2023-02-14T06:20:10.395Z,100
2023-02-14T06:21:10.394Z,100
2023-02-14T06:22:10.478Z,100
2023-02-14T06:23:10.394Z,100
2023-02-14T06:24:10.498Z,100
2023-02-14T06:25:10.405Z,100
2023-02-14T06:26:10.398Z,100
2023-02-14T06:27:10.437Z,100
2023-02-14T06:28:10.438Z,100
2023-02-14T06:29:10.400Z,100
2023-02-14T06:30:10.430Z,100
2023-02-14T06:31:10.584Z,100
2023-02-14T06:32:10.563Z,100
2023-02-14T06:33:10.388Z,100
2023-02-14T06:34:10.391Z,100
2023-02-14T06:35:10.392Z,100
2023-02-14T06:36:10.383Z,100
2023-02-14T06:37:10.387Z,100
2023-02-14T06:38:10.388Z,100
2023-02-14T06:39:10.400Z,100
2023-02-14T06:40:10.405Z,100
2023-02-14T06:41:10.388Z,100
2023-02-14T06:42:10.436Z,100
2023-02-14T06:43:10.395Z,100
2023-02-14T06:44:10.456Z,100
2023-02-14T06:45:10.396Z,100
2023-02-14T06:46:10.429Z,100
2023-02-14T06:47:10.470Z,100
2023-02-14T06:48:10.399Z,100
2023-02-14T06:49:10.398Z,100
2023-02-14T06:50:10.418Z,100
2023-02-14T06:51:10.390Z,100
2023-02-14T06:52:10.516Z,100
2023-02-14T06:53:10.524Z,100
2023-02-14T06:54:10.395Z,100
2023-02-14T06:55:10.392Z,100
2023-02-14T06:56:10.405Z,100
2023-02-14T06:57:10.401Z,100
2023-02-14T06:58:10.389Z,100
2023-02-14T06:59:10.390Z,100
2023-02-14T07:00:10.406Z,100
2023-02-14T07:01:10.446Z,100
2023-02-14T07:02:10.484Z,100
2023-02-14T07:03:10.410Z,100
2023-02-14T07:04:10.391Z,100
2023-02-14T07:05:10.398Z,100
2023-02-14T07:06:10.401Z,100
2023-02-14T07:07:10.484Z,100
2023-02-14T07:08:10.395Z,100
2023-02-14T07:09:10.396Z,100
2023-02-14T07:10:10.393Z,100
2023-02-14T07:11:10.400Z,100
2023-02-14T07:12:10.383Z,100
2023-02-14T07:13:10.395Z,100
2023-02-14T07:14:10.395Z,100
2023-02-14T07:15:10.386Z,100
2023-02-14T07:16:10.411Z,100
2023-02-14T07:17:10.390Z,100
2023-02-14T07:18:10.388Z,100
2023-02-14T07:19:10.397Z,100
2023-02-14T07:20:10.389Z,100
2023-02-14T07:21:10.416Z,100
2023-02-14T07:22:10.412Z,100
2023-02-14T07:23:10.387Z,100
2023-02-14T07:24:10.383Z,100
2023-02-14T07:25:10.437Z,100
2023-02-14T07:26:10.399Z,100
2023-02-14T07:27:10.400Z,100
2023-02-14T07:28:10.397Z,100
2023-02-14T07:29:10.399Z,100
2023-02-14T07:30:10.454Z,100
2023-02-14T07:31:10.463Z,100
2023-02-14T07:32:10.476Z,100
2023-02-14T07:33:10.397Z,100
2023-02-14T07:34:10.387Z,100
2023-02-14T07:35:10.386Z,100
2023-02-14T07:36:10.388Z,100
2023-02-14T07:37:10.412Z,100
2023-02-14T07:38:10.388Z,100
2023-02-14T07:39:10.396Z,100
2023-02-14T07:40:14.640Z,100
2023-02-14T07:41:10.387Z,100
2023-02-14T07:42:10.411Z,100
2023-02-14T07:43:10.389Z,100
2023-02-14T07:44:10.414Z,100
2023-02-14T07:45:21.238Z,100
2023-02-14T07:46:10.441Z,100
2023-02-14T07:47:10.424Z,100
2023-02-14T07:49:10.395Z,100
2023-02-14T07:50:10.403Z,100
2023-02-14T07:51:10.401Z,100
2023-02-14T07:52:10.449Z,100
2023-02-14T07:53:10.388Z,100
2023-02-14T07:54:10.392Z,100
2023-02-14T07:55:10.391Z,100
2023-02-14T07:56:10.394Z,100
2023-02-14T07:57:10.390Z,100
2023-02-14T07:59:10.428Z,100
2023-02-14T08:00:10.415Z,100
2023-02-14T08:01:10.488Z,100
2023-02-14T08:02:10.445Z,100
2023-02-14T08:03:10.395Z,100
2023-02-14T08:04:10.393Z,100
2023-02-14T08:05:10.454Z,100
2023-02-14T08:06:10.390Z,100
2023-02-14T08:07:10.404Z,100
2023-02-14T08:08:10.397Z,100
2023-02-14T08:09:10.390Z,100
2023-02-14T08:10:12.822Z,100
2023-02-14T08:11:10.385Z,100
2023-02-14T08:12:10.393Z,100
2023-02-14T08:13:10.395Z,100
2023-02-14T08:14:10.388Z,100
2023-02-14T08:15:10.391Z,100
2023-02-14T08:16:10.427Z,100
2023-02-14T08:17:10.390Z,100
2023-02-14T08:18:10.389Z,100
2023-02-14T08:19:10.392Z,100
2023-02-14T08:20:10.397Z,100
2023-02-14T08:21:10.384Z,100
2023-02-14T08:22:10.392Z,100
2023-02-14T08:23:10.407Z,94
2023-02-14T08:24:10.396Z,94
2023-02-14T08:25:10.388Z,90
2023-02-14T08:26:10.388Z,89.9
2023-02-14T08:28:10.386Z,85.9
2023-02-14T08:31:10.446Z,82.3
2023-02-14T08:32:10.467Z,85.2
2023-02-14T08:33:10.390Z,83
2023-02-14T08:34:10.389Z,80.4
2023-02-14T08:35:10.394Z,79.3
2023-02-14T08:36:10.385Z,78.9
2023-02-14T08:37:10.397Z,78.2
2023-02-14T08:38:10.428Z,78.2
2023-02-14T08:39:10.384Z,79.4
2023-02-14T08:40:10.387Z,78.7
2023-02-14T08:42:10.388Z,81.8
2023-02-14T08:43:10.385Z,78
2023-02-14T08:44:10.438Z,73.2
2023-02-14T08:45:10.385Z,72.6
2023-02-14T08:46:10.491Z,71.3
2023-02-14T08:47:10.473Z,69.5
2023-02-14T08:48:10.383Z,67.5
2023-02-14T08:49:10.422Z,67.1
2023-02-14T08:50:10.384Z,62.4
2023-02-14T08:51:10.391Z,65.2
2023-02-14T08:52:10.392Z,61.5
2023-02-14T08:53:10.424Z,62.6
2023-02-14T08:54:10.421Z,60.2
2023-02-14T08:55:10.395Z,57.8
2023-02-14T08:56:10.417Z,58.7
2023-02-14T08:57:10.422Z,60.5
2023-02-14T08:58:10.403Z,58.5
2023-02-14T08:59:10.408Z,56.5
2023-02-14T09:00:10.394Z,57.8
2023-02-14T09:01:10.487Z,59
2023-02-14T09:02:10.391Z,59.1
2023-02-14T09:03:10.392Z,60.5
2023-02-14T09:04:10.486Z,57.6
2023-02-14T09:05:10.413Z,58.2
2023-02-14T09:06:10.483Z,56.3
2023-02-14T09:07:10.485Z,54
2023-02-14T09:08:10.397Z,53.8
2023-02-14T09:09:10.387Z,57.2
2023-02-14T09:10:10.408Z,57.7
2023-02-14T09:11:10.406Z,56.6
2023-02-14T09:12:10.397Z,54.2
2023-02-14T09:13:10.394Z,55.3
2023-02-14T09:14:10.392Z,56.1
2023-02-14T09:15:10.530Z,58.8
2023-02-14T09:16:10.540Z,56.1
2023-02-14T09:17:10.441Z,57.3
2023-02-14T09:18:10.437Z,59.5
2023-02-14T09:19:10.424Z,55.9
2023-02-14T09:20:10.437Z,58.3
2023-02-14T09:21:10.413Z,57.8
2023-02-14T09:22:10.417Z,59.6
2023-02-14T09:23:10.397Z,58.7
2023-02-14T09:24:10.397Z,58.8
2023-02-14T09:25:10.436Z,59
2023-02-14T09:26:10.423Z,59.6
2023-02-14T09:27:10.403Z,56.5
2023-02-14T09:28:10.424Z,55
2023-02-14T09:29:10.404Z,54.9
2023-02-14T09:30:10.454Z,60.2
2023-02-14T09:31:10.488Z,56.4
2023-02-14T09:32:10.505Z,58
2023-02-14T09:33:10.401Z,57.3
2023-02-14T09:34:10.412Z,57.6
2023-02-14T09:35:10.438Z,57.9
2023-02-14T09:36:10.403Z,59.4
2023-02-14T09:37:10.407Z,57.2
2023-02-14T09:38:10.404Z,59.5
2023-02-14T09:39:10.399Z,58.3
2023-02-14T09:40:10.404Z,53.9
2023-02-14T09:41:10.398Z,55
2023-02-14T09:42:10.400Z,59.1
2023-02-14T09:43:10.407Z,56.9
2023-02-14T09:44:10.405Z,56.5
2023-02-14T09:45:10.396Z,58
2023-02-14T09:46:10.444Z,57.3
2023-02-14T09:47:10.401Z,55.4
2023-02-14T09:48:10.408Z,56.1
2023-02-14T09:49:10.563Z,54.8
2023-02-14T09:50:10.451Z,56.9
2023-02-14T09:52:10.427Z,56.4
2023-02-14T09:53:10.404Z,59
2023-02-14T09:54:10.414Z,56.1
2023-02-14T09:55:10.410Z,57.1
2023-02-14T09:56:10.443Z,56.6
2023-02-14T09:58:10.414Z,59.2
2023-02-14T09:59:10.410Z,57.1
2023-02-14T10:00:10.421Z,58.4
2023-02-14T10:01:10.463Z,56.7
2023-02-14T10:02:10.444Z,54.7
2023-02-14T10:03:10.478Z,56.1
2023-02-14T10:04:10.411Z,55.5
2023-02-14T10:05:10.421Z,57.2
2023-02-14T10:07:10.408Z,55.5
2023-02-14T10:08:10.413Z,55.3
2023-02-14T10:09:10.559Z,56.5
2023-02-14T10:10:10.403Z,55.3
2023-02-14T10:11:10.405Z,55.9
2023-02-14T10:12:10.460Z,56.7
2023-02-14T10:13:10.411Z,58.8
2023-02-14T10:14:10.412Z,59
2023-02-14T10:15:10.495Z,57.1
2023-02-14T10:16:10.476Z,59.2
2023-02-14T10:17:10.411Z,58
2023-02-14T10:18:10.413Z,56.6
2023-02-14T10:19:10.413Z,55.7
2023-02-14T10:20:10.412Z,56.9
2023-02-14T10:21:10.414Z,57.2
2023-02-14T10:22:10.413Z,57
2023-02-14T10:23:10.410Z,57.2
2023-02-14T10:24:10.418Z,58.8
2023-02-14T10:25:10.419Z,59.3
2023-02-14T10:26:10.417Z,57.4
2023-02-14T10:27:10.434Z,57.4
2023-02-14T10:28:10.427Z,58.6
2023-02-14T10:29:10.412Z,56.5
2023-02-14T10:30:10.577Z,57
2023-02-14T10:31:10.462Z,57
2023-02-14T10:32:10.583Z,59.1
2023-02-14T10:33:10.411Z,59
2023-02-14T10:34:10.413Z,58.6
2023-02-14T10:35:10.471Z,56.6
2023-02-14T10:36:10.416Z,57.2
2023-02-14T10:37:10.411Z,57.8
2023-02-14T10:38:10.421Z,57.4
2023-02-14T10:39:10.421Z,57.9
2023-02-14T10:40:10.428Z,56.4
2023-02-14T10:41:10.425Z,54.9
2023-02-14T10:42:10.467Z,55.4
2023-02-14T10:43:10.419Z,58
2023-02-14T10:44:10.417Z,56.4
2023-02-14T10:45:10.415Z,54.5
2023-02-14T10:46:10.500Z,54.8
2023-02-14T10:47:10.413Z,54.6
2023-02-14T10:48:10.416Z,54.5
2023-02-14T10:49:10.416Z,54.4
2023-02-14T10:50:10.413Z,53.9
2023-02-14T10:51:10.414Z,55.9
2023-02-14T10:52:10.489Z,55
2023-02-14T10:53:10.419Z,52.4
2023-02-14T10:54:10.414Z,52
2023-02-14T10:55:12.416Z,53.5
2023-02-14T10:56:10.426Z,51.7
2023-02-14T10:57:10.415Z,52
2023-02-14T10:58:10.441Z,53.5
2023-02-14T10:59:10.464Z,54.3
2023-02-14T11:00:10.498Z,53.7
2023-02-14T11:01:10.497Z,52.7
2023-02-14T11:02:10.424Z,56.2
2023-02-14T11:03:10.481Z,55.8
2023-02-14T11:04:10.427Z,53.3
2023-02-14T11:05:10.434Z,54.6
2023-02-14T11:06:10.421Z,52.7
2023-02-14T11:07:10.448Z,52.3
2023-02-14T11:08:10.422Z,52.2
2023-02-14T11:09:10.471Z,53.3
2023-02-14T11:10:10.429Z,53.5
2023-02-14T11:11:10.437Z,55.6
2023-02-14T11:12:10.431Z,54.7
2023-02-14T11:13:10.432Z,54.5
2023-02-14T11:14:10.448Z,54
2023-02-14T11:15:10.428Z,50.7
2023-02-14T11:16:10.426Z,49.7
2023-02-14T11:17:10.425Z,50.2
2023-02-14T11:18:10.451Z,50.6
2023-02-14T11:19:10.431Z,47.5
2023-02-14T11:20:10.428Z,50
2023-02-14T11:21:10.440Z,50.9
2023-02-14T11:22:10.459Z,50.3
2023-02-14T11:23:10.421Z,48.5
2023-02-14T11:24:10.429Z,50.2
2023-02-14T11:25:10.432Z,50.4
2023-02-14T11:26:10.446Z,51.7
2023-02-14T11:27:10.416Z,52.3
2023-02-14T11:28:10.428Z,49.1
2023-02-14T11:29:10.471Z,48.8
2023-02-14T11:30:10.483Z,48.9
2023-02-14T11:31:10.530Z,49.6
2023-02-14T11:32:10.433Z,49.3
2023-02-14T11:33:10.429Z,51.5
2023-02-14T11:34:10.442Z,51
2023-02-14T11:35:10.427Z,53.5
2023-02-14T11:36:10.437Z,51.8
2023-02-14T11:37:10.422Z,51.7
2023-02-14T11:38:10.424Z,51.4
2023-02-14T11:39:10.428Z,52.2
2023-02-14T11:40:10.434Z,52.4
2023-02-14T11:41:10.511Z,52.2
2023-02-14T11:42:10.427Z,54
2023-02-14T11:43:14.339Z,51.9
2023-02-14T11:44:10.429Z,52.9
2023-02-14T11:45:10.430Z,52.2
2023-02-14T11:46:10.471Z,52.2
2023-02-14T11:47:10.440Z,52
2023-02-14T11:48:10.444Z,50
2023-02-14T11:49:10.432Z,50.2
2023-02-14T11:50:10.429Z,49.7
2023-02-14T11:51:10.440Z,49.3
2023-02-14T11:52:10.552Z,50.4
2023-02-14T11:53:10.436Z,49
2023-02-14T11:54:10.444Z,50.3
2023-02-14T11:55:10.433Z,50.2
2023-02-14T11:56:10.428Z,50.6
2023-02-14T11:57:10.437Z,51
2023-02-14T11:58:10.436Z,51.9
2023-02-14T11:59:10.440Z,51.3
2023-02-14T12:00:10.508Z,51.2
2023-02-14T12:01:10.442Z,51.3
2023-02-14T12:02:10.509Z,51.2
2023-02-14T12:03:10.462Z,51.8
2023-02-14T12:04:10.441Z,53.4
2023-02-14T12:05:10.433Z,52.1
2023-02-14T12:06:10.438Z,52.1
2023-02-14T12:07:10.441Z,51.8
2023-02-14T12:08:10.489Z,52.5
2023-02-14T12:09:10.442Z,53.3
2023-02-14T12:10:10.442Z,54
2023-02-14T12:11:10.443Z,52.4
2023-02-14T12:12:10.434Z,51.5
2023-02-14T12:13:10.442Z,51.7
2023-02-14T12:14:10.441Z,53.3
2023-02-14T12:15:10.446Z,52.5
2023-02-14T12:16:10.491Z,51.9
2023-02-14T12:17:10.439Z,52.4
2023-02-14T12:18:10.436Z,52.6
2023-02-14T12:19:10.447Z,53.8
2023-02-14T12:20:10.444Z,53.4
2023-02-14T12:21:10.442Z,53.1
2023-02-14T12:22:10.457Z,53
2023-02-14T12:23:10.448Z,52.5
2023-02-14T12:24:10.444Z,51.1
2023-02-14T12:25:10.453Z,50.3
2023-02-14T12:26:10.445Z,51.2
2023-02-14T12:27:10.440Z,51.6
2023-02-14T12:28:10.447Z,51.8
2023-02-14T12:29:10.468Z,53.3
2023-02-14T12:30:10.499Z,51.9
2023-02-14T12:31:10.584Z,52.5
2023-02-14T12:32:10.562Z,50.7
2023-02-14T12:33:10.445Z,50.5
2023-02-14T13:24:22.005Z,51.3
2023-02-14T13:30:10.522Z,50
